Time;durP1;ratioP1;P1;durP2;ratioP2;P2;SDS_P1;SDS_P2;PMS_P1;PMS_P2;Temp;Humidity;BMP_temperature;BMP_pressure;BME280_temperature;BME280_humidity;BME280_pressure;Samples;Min_cycle;Max_cycle;Signal;HPM_P1;HPM_P2
2023/05/05 00:01:31;;;;;;;;;;;18.40;64.40;;;;;;5051825;28;837;-69
2023/05/05 00:03:57;;;;;;;;;;;18.40;64.40;;;;;;5082956;28;1267;-70
2023/05/05 00:06:23;;;;;;;;;;;18.40;64.40;;;;;;5051393;28;979;-70
2023/05/05 00:08:48;;;;;;;;;;;18.40;64.40;;;;;;5050798;28;1969;-70
2023/05/05 00:11:14;;;;;;;;;;;18.40;64.40;;;;;;5051127;28;798;-70
2023/05/05 00:13:39;;;;;;;;;;;18.40;64.50;;;;;;5051555;28;906;-70
2023/05/05 00:16:05;;;;;;;;;;;18.40;64.50;;;;;;5047465;28;1342;-70
2023/05/05 00:18:32;;;;;;;;;;;18.40;64.50;;;;;;5052111;28;812;-69
2023/05/05 00:20:58;;;;;;;;;;;18.40;64.50;;;;;;5083102;28;863;-70
2023/05/05 00:23:23;;;;;;;;;;;18.30;64.50;;;;;;5050972;28;819;-69
2023/05/05 00:25:49;;;;;;;;;;;18.30;64.50;;;;;;5051027;28;1264;-69
2023/05/05 00:28:14;;;;;;;;;;;18.40;64.60;;;;;;5050831;28;1967;-69
2023/05/05 00:30:40;;;;;;;;;;;18.30;64.50;;;;;;5082727;28;843;-70
2023/05/05 00:33:05;;;;;;;;;;;18.30;64.50;;;;;;5051166;28;803;-70
2023/05/05 00:35:31;;;;;;;;;;;18.30;64.50;;;;;;5050730;28;1243;-70
2023/05/05 00:37:57;;;;;;;;;;;18.30;64.50;;;;;;5050796;28;927;-70
2023/05/05 00:40:22;;;;;;;;;;;18.30;64.60;;;;;;5083283;28;866;-69
2023/05/05 00:42:50;;;;;;;;;;;18.30;64.60;;;;;;5050895;28;875;-70
2023/05/05 00:45:16;;;;;;;;;;;18.30;64.60;;;;;;5048532;28;1250;-70
2023/05/05 00:47:43;;;;;;;;;;;18.30;64.60;;;;;;5050348;28;818;-70
2023/05/05 00:50:08;;;;;;;;;;;18.30;64.60;;;;;;5045885;28;1907;-70
2023/05/05 00:52:35;;;;;;;;;;;18.30;64.60;;;;;;5050540;28;966;-70
2023/05/05 00:55:00;;;;;;;;;;;18.30;64.70;;;;;;5050289;28;1282;-70
2023/05/05 00:57:27;;;;;;;;;;;18.30;64.70;;;;;;5049335;28;883;-70
2023/05/05 00:59:52;;;;;;;;;;;18.30;64.70;;;;;;5082531;28;859;-70
2023/05/05 01:02:18;;;;;;;;;;;18.30;64.70;;;;;;5049308;28;924;-70
2023/05/05 01:04:43;;;;;;;;;;;18.30;64.70;;;;;;5050223;28;1506;-70
2023/05/05 01:07:35;;;;;;;;;;;18.30;64.70;;;;;;5082514;28;927;-70
2023/05/05 01:10:09;;;;;;;;;;;18.30;64.70;;;;;;5055417;28;1956;-70
2023/05/05 01:12:44;;;;;;;;;;;18.30;64.70;;;;;;5048499;28;829;-70
2023/05/05 01:15:28;;;;;;;;;;;18.30;64.80;;;;;;5050027;28;1317;-70
2023/05/05 01:18:14;;;;;;;;;;;18.30;64.80;;;;;;5049858;28;820;-69
2023/05/05 01:20:41;;;;;;;;;;;18.30;64.80;;;;;;5049532;28;1184;-70
2023/05/05 01:23:07;;;;;;;;;;;18.30;64.80;;;;;;5049457;28;942;-70
2023/05/05 01:25:39;;;;;;;;;;;18.30;64.80;;;;;;5043764;28;1347;-70
2023/05/05 01:28:17;;;;;;;;;;;18.30;64.80;;;;;;5048795;28;1934;-69
2023/05/05 01:30:42;;;;;;;;;;;18.30;64.80;;;;;;5049912;28;904;-69
2023/05/05 01:33:08;;;;;;;;;;;18.30;64.80;;;;;;5049868;28;987;-70
2023/05/05 01:35:40;;;;;;;;;;;18.30;64.90;;;;;;5042942;28;1753;-70
2023/05/05 01:38:15;;;;;;;;;;;18.30;64.90;;;;;;5048952;28;988;-70
2023/05/05 01:40:42;;;;;;;;;;;18.30;64.90;;;;;;5042660;28;896;-70
2023/05/05 01:43:07;;;;;;;;;;;18.30;64.90;;;;;;5049306;28;1236;-69
2023/05/05 01:45:34;;;;;;;;;;;18.30;64.90;;;;;;5082702;28;1338;-70
2023/05/05 01:48:00;;;;;;;;;;;18.30;64.90;;;;;;5048961;28;1914;-70
2023/05/05 01:50:26;;;;;;;;;;;18.30;64.90;;;;;;5048777;28;828;-70
2023/05/05 01:52:52;;;;;;;;;;;18.30;64.90;;;;;;5048796;28;1664;-70
2023/05/05 01:55:17;;;;;;;;;;;18.30;65.00;;;;;;5082795;28;1279;-71
2023/05/05 01:57:43;;;;;;;;;;;18.30;65.00;;;;;;5052026;28;1062;-70
2023/05/05 02:00:08;;;;;;;;;;;18.30;65.00;;;;;;5086729;28;892;-70
2023/05/05 02:02:34;;;;;;;;;;;18.30;65.00;;;;;;5052603;28;946;-71
2023/05/05 02:04:59;;;;;;;;;;;18.30;65.00;;;;;;5053612;28;1306;-70
2023/05/05 02:07:25;;;;;;;;;;;18.30;65.00;;;;;;5052574;28;904;-70
2023/05/05 02:09:50;;;;;;;;;;;18.30;65.00;;;;;;5053879;28;1906;-71
2023/05/05 02:12:16;;;;;;;;;;;18.20;64.90;;;;;;5045739;28;775;-70
2023/05/05 02:14:42;;;;;;;;;;;18.20;65.00;;;;;;5085941;28;1319;-70
2023/05/05 02:17:07;;;;;;;;;;;18.30;65.00;;;;;;5053607;28;1006;-70
2023/05/05 02:19:33;;;;;;;;;;;18.20;65.00;;;;;;5052337;28;897;-70
2023/05/05 02:21:59;;;;;;;;;;;18.20;65.00;;;;;;5052219;28;1178;-70
2023/05/05 02:24:25;;;;;;;;;;;18.20;65.00;;;;;;5053288;28;1213;-70
2023/05/05 02:26:50;;;;;;;;;;;18.20;65.00;;;;;;5052116;28;917;-70
2023/05/05 02:29:16;;;;;;;;;;;18.20;65.10;;;;;;5053368;28;1961;-70
2023/05/05 02:31:46;;;;;;;;;;;18.20;65.00;;;;;;5052324;28;800;-70
2023/05/05 02:34:12;;;;;;;;;;;18.20;65.00;;;;;;5052277;28;1447;-70
2023/05/05 02:36:38;;;;;;;;;;;18.20;65.10;;;;;;5085581;28;807;-70
2023/05/05 02:39:06;;;;;;;;;;;18.20;65.00;;;;;;5051592;28;835;-70
2023/05/05 02:41:32;;;;;;;;;;;18.20;65.10;;;;;;5085672;28;843;-70
2023/05/05 02:43:57;;;;;;;;;;;18.30;65.10;;;;;;5085317;28;1221;-70
2023/05/05 02:46:22;;;;;;;;;;;18.20;65.10;;;;;;5048407;28;837;-70
2023/05/05 02:48:48;;;;;;;;;;;18.20;65.10;;;;;;5052905;28;1961;-70
2023/05/05 02:51:13;;;;;;;;;;;18.20;65.10;;;;;;5053039;28;887;-70
2023/05/05 02:53:39;;;;;;;;;;;18.20;65.10;;;;;;5052679;28;821;-70
2023/05/05 02:56:07;;;;;;;;;;;18.20;65.10;;;;;;5045222;28;1219;-70
2023/05/05 02:58:38;;;;;;;;;;;18.20;65.20;;;;;;5051789;28;958;-71
2023/05/05 03:01:10;;;;;;;;;;;18.20;65.10;;;;;;5052666;28;1030;-71
2023/05/05 03:03:52;;;;;;;;;;;18.20;65.20;;;;;;5084629;28;859;-70
2023/05/05 03:06:21;;;;;;;;;;;18.20;65.20;;;;;;5084645;28;1129;-71
2023/05/05 03:09:05;;;;;;;;;;;18.20;65.20;;;;;;5048036;28;1933;-70
2023/05/05 03:11:31;;;;;;;;;;;18.20;65.20;;;;;;5050829;28;898;-70
2023/05/05 03:14:05;;;;;;;;;;;18.20;65.20;;;;;;5084757;28;1225;-70
2023/05/05 03:16:30;;;;;;;;;;;18.20;65.20;;;;;;5051416;28;1013;-69
2023/05/05 03:18:57;;;;;;;;;;;18.20;65.20;;;;;;5044371;28;862;-70
2023/05/05 03:21:23;;;;;;;;;;;18.20;65.20;;;;;;5052549;28;818;-70
2023/05/05 03:23:48;;;;;;;;;;;18.20;65.60;;;;;;5052396;28;844;-70
2023/05/05 03:26:15;;;;;;;;;;;18.20;65.20;;;;;;5052066;28;1371;-70
2023/05/05 03:28:41;;;;;;;;;;;18.20;65.20;;;;;;5052478;28;1961;-70
2023/05/05 03:31:06;;;;;;;;;;;18.20;65.30;;;;;;5052249;28;892;-70
2023/05/05 03:33:32;;;;;;;;;;;18.20;65.20;;;;;;5045954;28;1143;-70
2023/05/05 03:35:57;;;;;;;;;;;18.20;65.20;;;;;;5051782;28;1249;-70
2023/05/05 03:38:22;;;;;;;;;;;18.20;65.20;;;;;;5053712;28;866;-70
2023/05/05 03:40:48;;;;;;;;;;;18.20;65.30;;;;;;5052277;28;906;-70
2023/05/05 03:43:13;;;;;;;;;;;18.20;65.30;;;;;;5051987;28;926;-70
2023/05/05 03:45:39;;;;;;;;;;;18.20;65.30;;;;;;5051966;28;1300;-69
2023/05/05 03:48:05;;;;;;;;;;;18.20;65.30;;;;;;5050765;28;1976;-70
2023/05/05 03:50:30;;;;;;;;;;;18.20;65.30;;;;;;5084401;28;875;-70
2023/05/05 03:52:55;;;;;;;;;;;18.20;65.30;;;;;;5051897;28;867;-70
2023/05/05 03:55:21;;;;;;;;;;;18.20;65.30;;;;;;5051521;28;1228;-70
2023/05/05 03:57:46;;;;;;;;;;;18.20;65.40;;;;;;5051740;28;871;-70
2023/05/05 04:00:13;;;;;;;;;;;18.20;65.40;;;;;;5051081;28;1361;-70
2023/05/05 04:02:38;;;;;;;;;;;18.20;65.40;;;;;;5051459;28;860;-71
2023/05/05 04:05:03;;;;;;;;;;;18.20;65.40;;;;;;5050322;28;1317;-70
2023/05/05 04:07:29;;;;;;;;;;;18.20;65.40;;;;;;5050906;28;901;-70
2023/05/05 04:09:56;;;;;;;;;;;18.20;65.30;;;;;;5051126;28;1910;-70
2023/05/05 04:12:22;;;;;;;;;;;18.20;65.30;;;;;;5051155;28;821;-70
2023/05/05 04:14:47;;;;;;;;;;;18.20;65.20;;;;;;5050987;28;1355;-70
2023/05/05 04:17:13;;;;;;;;;;;18.30;65.20;;;;;;5051078;28;883;-70
2023/05/05 04:19:38;;;;;;;;;;;18.30;65.10;;;;;;5051352;28;1329;-71
2023/05/05 04:22:04;;;;;;;;;;;18.30;64.90;;;;;;5051129;28;875;-70
2023/05/05 04:24:29;;;;;;;;;;;18.30;64.80;;;;;;5049868;28;1244;-70
2023/05/05 04:26:54;;;;;;;;;;;18.40;64.80;;;;;;5051150;28;898;-71
2023/05/05 04:29:20;;;;;;;;;;;18.40;64.60;;;;;;5083249;28;1973;-70
2023/05/05 04:31:45;;;;;;;;;;;18.40;64.60;;;;;;5051053;28;918;-71
2023/05/05 04:34:11;;;;;;;;;;;18.50;64.40;;;;;;5051188;28;1456;-70
2023/05/05 04:36:36;;;;;;;;;;;18.50;64.30;;;;;;5037928;28;1829;-69
2023/05/05 04:39:02;;;;;;;;;;;18.50;64.20;;;;;;5077067;28;1993;-69
2023/05/05 04:41:27;;;;;;;;;;;18.50;64.10;;;;;;5050545;28;1280;-69
2023/05/05 04:43:53;;;;;;;;;;;18.60;64.10;;;;;;5048564;28;1496;-70
2023/05/05 04:46:19;;;;;;;;;;;18.60;64.00;;;;;;5043816;28;1526;-70
2023/05/05 04:48:44;;;;;;;;;;;18.60;63.90;;;;;;5049957;28;1898;-70
2023/05/05 04:51:11;;;;;;;;;;;18.60;63.80;;;;;;5050159;28;1205;-71
2023/05/05 04:53:37;;;;;;;;;;;18.60;63.70;;;;;;5049334;28;910;-72
2023/05/05 04:56:02;;;;;;;;;;;18.60;63.80;;;;;;5081937;28;1497;-71
2023/05/05 04:58:28;;;;;;;;;;;18.70;63.70;;;;;;5048788;28;832;-72
2023/05/05 05:00:53;;;;;;;;;;;18.70;63.60;;;;;;5050045;28;1009;-70
2023/05/05 05:03:18;;;;;;;;;;;18.80;63.50;;;;;;5049784;28;804;-70
2023/05/05 05:05:44;;;;;;;;;;;18.90;63.40;;;;;;5049685;28;1253;-70
2023/05/05 05:08:09;;;;;;;;;;;19.00;63.30;;;;;;5049350;28;2216;-69
2023/05/05 05:10:35;;;;;;;;;;;19.10;63.10;;;;;;5049757;28;839;-70
2023/05/05 05:13:00;;;;;;;;;;;19.20;62.80;;;;;;5049235;28;836;-70
2023/05/05 05:15:26;;;;;;;;;;;19.30;62.60;;;;;;5081706;28;1430;-71
2023/05/05 05:17:51;;;;;;;;;;;19.40;62.30;;;;;;5049635;28;880;-71
2023/05/05 05:20:17;;;;;;;;;;;19.50;62.00;;;;;;5043407;28;880;-71
2023/05/05 05:22:43;;;;;;;;;;;19.60;61.70;;;;;;5049990;28;888;-71
2023/05/05 05:25:08;;;;;;;;;;;19.70;61.40;;;;;;5050849;28;1248;-70
2023/05/05 05:27:34;;;;;;;;;;;19.80;61.20;;;;;;5049486;28;891;-70
2023/05/05 05:29:59;;;;;;;;;;;19.90;61.20;;;;;;5049185;28;1898;-70
2023/05/05 05:32:25;;;;;;;;;;;19.90;60.70;;;;;;5049148;28;867;-69
2023/05/05 05:34:50;;;;;;;;;;;20.00;60.50;;;;;;5081590;28;1384;-70
2023/05/05 05:37:16;;;;;;;;;;;20.10;60.30;;;;;;5049021;28;855;-70
2023/05/05 05:39:41;;;;;;;;;;;20.10;60.10;;;;;;5050117;28;871;-70
2023/05/05 05:42:07;;;;;;;;;;;20.20;60.00;;;;;;5050105;28;883;-70
2023/05/05 05:44:32;;;;;;;;;;;20.20;59.80;;;;;;5050058;28;1281;-71
2023/05/05 05:46:57;;;;;;;;;;;20.30;59.80;;;;;;5050191;28;907;-70
2023/05/05 05:49:23;;;;;;;;;;;20.30;59.60;;;;;;5082299;28;1902;-71
2023/05/05 05:51:48;;;;;;;;;;;20.40;59.60;;;;;;5050042;28;853;-70
2023/05/05 05:54:14;;;;;;;;;;;20.40;59.50;;;;;;5049688;28;1223;-70
2023/05/05 05:56:39;;;;;;;;;;;20.40;59.40;;;;;;5050031;28;828;-69
2023/05/05 05:59:07;;;;;;;;;;;20.50;59.30;;;;;;5050641;28;863;-70
2023/05/05 06:01:33;;;;;;;;;;;20.50;59.30;;;;;;5049553;28;914;-71
2023/05/05 06:03:59;;;;;;;;;;;20.60;59.20;;;;;;5049546;28;1272;-70
2023/05/05 06:06:25;;;;;;;;;;;20.50;59.20;;;;;;5049746;28;835;-70
2023/05/05 06:08:50;;;;;;;;;;;20.60;59.10;;;;;;5050151;28;1898;-70
2023/05/05 06:11:15;;;;;;;;;;;20.60;59.10;;;;;;5082273;28;1200;-70
2023/05/05 06:13:41;;;;;;;;;;;20.60;59.00;;;;;;5049541;28;1005;-71
2023/05/05 06:16:07;;;;;;;;;;;20.60;59.00;;;;;;5050612;28;1667;-71
2023/05/05 06:18:32;;;;;;;;;;;20.60;58.90;;;;;;5049863;28;992;-70
2023/05/05 06:20:59;;;;;;;;;;;20.70;58.90;;;;;;5048634;28;867;-70
2023/05/05 06:23:24;;;;;;;;;;;20.70;59.00;;;;;;5049508;28;914;-70
2023/05/05 06:25:49;;;;;;;;;;;20.70;58.90;;;;;;5050247;28;1238;-70
2023/05/05 06:28:15;;;;;;;;;;;20.70;58.90;;;;;;5049483;28;1878;-70
2023/05/05 06:30:40;;;;;;;;;;;20.70;58.90;;;;;;5050157;28;889;-70
2023/05/05 06:33:06;;;;;;;;;;;20.80;58.90;;;;;;5049424;28;821;-70
2023/05/05 06:35:31;;;;;;;;;;;20.80;58.90;;;;;;5049345;28;1340;-70
2023/05/05 06:37:57;;;;;;;;;;;20.80;58.90;;;;;;5048538;28;2116;-70
2023/05/05 06:40:22;;;;;;;;;;;20.80;58.90;;;;;;5049106;28;1508;-70
2023/05/05 06:42:48;;;;;;;;;;;20.80;58.80;;;;;;5049112;28;1165;-70
2023/05/05 06:45:13;;;;;;;;;;;20.80;58.90;;;;;;5051816;28;1239;-70
2023/05/05 06:47:39;;;;;;;;;;;20.80;58.90;;;;;;5052811;28;820;-70
2023/05/05 06:50:05;;;;;;;;;;;20.80;58.90;;;;;;5052934;28;1902;-70
2023/05/05 06:52:30;;;;;;;;;;;20.80;58.90;;;;;;5051518;28;1265;-70
2023/05/05 06:54:56;;;;;;;;;;;20.80;58.90;;;;;;5052795;28;1262;-70
2023/05/05 06:57:21;;;;;;;;;;;20.80;58.90;;;;;;5052674;28;887;-70
2023/05/05 06:59:47;;;;;;;;;;;20.80;59.00;;;;;;5051676;28;1287;-71
2023/05/05 07:02:12;;;;;;;;;;;20.80;60.70;;;;;;5051590;28;1397;-71
2023/05/05 07:04:37;;;;;;;;;;;20.80;60.10;;;;;;5051593;28;1280;-71
2023/05/05 07:07:03;;;;;;;;;;;20.80;60.00;;;;;;5051888;28;1359;-70
2023/05/05 07:09:28;;;;;;;;;;;20.80;60.40;;;;;;5055075;28;1910;-70
2023/05/05 07:11:54;;;;;;;;;;;20.80;61.00;;;;;;5051820;28;897;-70
2023/05/05 07:14:19;;;;;;;;;;;20.70;61.40;;;;;;5051983;28;1323;-70
2023/05/05 07:16:45;;;;;;;;;;;20.70;61.50;;;;;;5051539;28;1553;-70
2023/05/05 07:19:11;;;;;;;;;;;20.70;61.90;;;;;;5051450;28;1426;-70
2023/05/05 07:21:38;;;;;;;;;;;20.70;62.00;;;;;;5051847;28;1344;-70
2023/05/05 07:24:04;;;;;;;;;;;20.70;61.90;;;;;;5050975;28;1465;-70
2023/05/05 07:26:29;;;;;;;;;;;20.70;62.00;;;;;;5049614;28;2152;-69
2023/05/05 07:28:57;;;;;;;;;;;20.70;62.30;;;;;;5083510;28;1909;-69
2023/05/05 07:31:23;;;;;;;;;;;20.60;62.00;;;;;;5048496;28;1495;-69
2023/05/05 07:33:48;;;;;;;;;;;20.60;62.00;;;;;;5034471;28;1668;-69
2023/05/05 07:36:15;;;;;;;;;;;20.60;62.20;;;;;;5084189;28;1724;-69
2023/05/05 07:38:40;;;;;;;;;;;20.60;62.50;;;;;;5084234;28;878;-69
2023/05/05 07:41:06;;;;;;;;;;;20.60;62.70;;;;;;5051952;28;856;-69
2023/05/05 07:43:31;;;;;;;;;;;20.60;63.10;;;;;;5051462;28;902;-69
2023/05/05 07:45:57;;;;;;;;;;;20.60;63.20;;;;;;5051809;28;1248;-69
2023/05/05 07:48:22;;;;;;;;;;;20.60;63.40;;;;;;5051699;28;1906;-70
2023/05/05 07:50:48;;;;;;;;;;;20.60;63.70;;;;;;5051796;28;907;-70
2023/05/05 07:53:13;;;;;;;;;;;20.60;63.70;;;;;;5051537;28;828;-70
2023/05/05 07:55:39;;;;;;;;;;;20.60;64.10;;;;;;5051089;28;1248;-70
2023/05/05 07:58:04;;;;;;;;;;;20.60;64.10;;;;;;5051561;28;825;-70
2023/05/05 08:00:30;;;;;;;;;;;20.50;64.80;;;;;;5051911;28;836;-70
2023/05/05 08:02:56;;;;;;;;;;;20.50;65.00;;;;;;5033920;28;1114;-70
2023/05/05 08:05:21;;;;;;;;;;;20.50;65.10;;;;;;5051226;28;1332;-70
2023/05/05 08:07:47;;;;;;;;;;;20.50;65.30;;;;;;5051435;28;874;-69
2023/05/05 08:10:12;;;;;;;;;;;20.50;65.00;;;;;;5051492;28;1959;-69
2023/05/05 08:12:38;;;;;;;;;;;20.50;65.10;;;;;;5083839;28;809;-70
2023/05/05 08:15:04;;;;;;;;;;;20.40;64.90;;;;;;5051148;28;1252;-70
2023/05/05 08:17:29;;;;;;;;;;;20.40;65.10;;;;;;5051183;28;868;-69
2023/05/05 08:19:55;;;;;;;;;;;20.40;65.30;;;;;;5051171;28;862;-69
2023/05/05 08:22:20;;;;;;;;;;;20.40;65.40;;;;;;5050705;28;915;-69
2023/05/05 08:24:46;;;;;;;;;;;20.30;65.50;;;;;;5049718;28;1247;-70
2023/05/05 08:27:12;;;;;;;;;;;20.30;65.50;;;;;;5051071;28;868;-70
2023/05/05 08:29:38;;;;;;;;;;;20.30;65.80;;;;;;5050930;28;1886;-71
2023/05/05 08:32:03;;;;;;;;;;;20.30;65.80;;;;;;5051143;28;1208;-70
2023/05/05 08:34:29;;;;;;;;;;;20.30;65.80;;;;;;5050720;28;1434;-70
2023/05/05 08:36:55;;;;;;;;;;;20.30;65.80;;;;;;5049854;28;2452;-69
2023/05/05 08:39:21;;;;;;;;;;;20.30;65.80;;;;;;5047236;28;1758;-70
2023/05/05 08:41:46;;;;;;;;;;;20.30;65.90;;;;;;5050575;28;1659;-70
2023/05/05 08:44:12;;;;;;;;;;;20.30;66.00;;;;;;5082468;28;1371;-71
2023/05/05 08:46:37;;;;;;;;;;;20.20;66.10;;;;;;5081169;28;844;-70
2023/05/05 08:49:02;;;;;;;;;;;20.20;66.20;;;;;;5050201;28;1955;-70
2023/05/05 08:51:30;;;;;;;;;;;20.20;66.20;;;;;;5083018;28;885;-71
2023/05/05 08:53:59;;;;;;;;;;;20.20;66.30;;;;;;5082566;28;1255;-70
2023/05/05 08:56:26;;;;;;;;;;;20.20;66.40;;;;;;5081773;28;855;-70
2023/05/05 08:58:51;;;;;;;;;;;20.20;66.50;;;;;;5049511;28;1209;-70
2023/05/05 09:01:17;;;;;;;;;;;20.20;66.70;;;;;;5050994;28;934;-70
2023/05/05 09:03:43;;;;;;;;;;;20.20;66.80;;;;;;5051414;28;831;-70
2023/05/05 09:06:08;;;;;;;;;;;20.10;66.80;;;;;;5048736;28;1259;-70
2023/05/05 09:08:33;;;;;;;;;;;20.20;66.90;;;;;;5048930;28;1981;-71
2023/05/05 09:10:59;;;;;;;;;;;20.10;67.10;;;;;;5081964;28;1608;-69
2023/05/05 09:13:25;;;;;;;;;;;20.10;67.30;;;;;;5049093;28;855;-70
2023/05/05 09:15:50;;;;;;;;;;;20.10;67.40;;;;;;5050288;28;1279;-71
2023/05/05 09:18:15;;;;;;;;;;;20.10;67.40;;;;;;5082591;28;1061;-70
2023/05/05 09:20:41;;;;;;;;;;;20.10;67.70;;;;;;5049370;28;824;-70
2023/05/05 09:23:13;;;;;;;;;;;20.10;67.70;;;;;;5050464;28;882;-71
2023/05/05 09:25:42;;;;;;;;;;;20.10;67.70;;;;;;5031791;28;1337;-70
2023/05/05 09:28:09;;;;;;;;;;;20.10;67.70;;;;;;5050254;28;1416;-70
2023/05/05 09:30:35;;;;;;;;;;;20.10;67.70;;;;;;5082118;28;1961;-70
2023/05/05 09:33:01;;;;;;;;;;;20.10;67.90;;;;;;5050309;28;896;-70
2023/05/05 09:35:26;;;;;;;;;;;20.10;67.90;;;;;;5044937;28;1409;-70
2023/05/05 09:37:52;;;;;;;;;;;20.00;67.80;;;;;;5082401;28;1448;-70
2023/05/05 09:40:17;;;;;;;;;;;20.10;68.00;;;;;;5065454;28;1068;-70
2023/05/05 09:42:43;;;;;;;;;;;20.00;67.80;;;;;;5050082;28;954;-69
2023/05/05 09:45:18;;;;;;;;;;;20.00;67.80;;;;;;5081764;28;1252;-70
2023/05/05 09:47:46;;;;;;;;;;;20.00;68.00;;;;;;5050126;28;965;-69
2023/05/05 09:50:17;;;;;;;;;;;20.00;68.20;;;;;;5080385;28;1910;-70
2023/05/05 09:52:59;;;;;;;;;;;20.00;68.20;;;;;;5050206;28;843;-69
2023/05/05 09:55:25;;;;;;;;;;;20.00;68.20;;;;;;5049640;28;1241;-69
2023/05/05 09:57:50;;;;;;;;;;;20.00;68.60;;;;;;5049894;28;1186;-69
2023/05/05 10:00:16;;;;;;;;;;;19.90;68.50;;;;;;5050577;28;1217;-70
2023/05/05 10:02:41;;;;;;;;;;;19.90;68.60;;;;;;5048862;28;811;-70
2023/05/05 10:05:07;;;;;;;;;;;19.90;68.50;;;;;;5049543;28;1248;-70
2023/05/05 10:07:33;;;;;;;;;;;19.90;68.40;;;;;;5049542;28;911;-70
2023/05/05 10:09:58;;;;;;;;;;;19.90;68.50;;;;;;5049758;28;1965;-70
2023/05/05 10:12:24;;;;;;;;;;;19.90;68.50;;;;;;5049690;28;998;-71
2023/05/05 10:14:51;;;;;;;;;;;19.90;68.50;;;;;;5048252;28;1264;-70
2023/05/05 10:17:16;;;;;;;;;;;19.90;68.50;;;;;;5048655;28;907;-70
2023/05/05 10:19:42;;;;;;;;;;;19.90;68.30;;;;;;5053128;28;845;-70
2023/05/05 10:22:07;;;;;;;;;;;19.90;68.20;;;;;;5046140;28;879;-69
2023/05/05 10:24:37;;;;;;;;;;;19.90;68.20;;;;;;5085475;28;1227;-69
2023/05/05 10:27:06;;;;;;;;;;;19.90;68.00;;;;;;5053136;28;846;-69
2023/05/05 10:29:31;;;;;;;;;;;19.90;67.90;;;;;;5085455;28;1902;-69
2023/05/05 10:32:17;;;;;;;;;;;19.90;67.90;;;;;;5053648;28;931;-70
2023/05/05 10:34:49;;;;;;;;;;;19.90;68.10;;;;;;5059232;28;1480;-70
2023/05/05 10:37:15;;;;;;;;;;;19.90;68.40;;;;;;5085000;28;864;-69
2023/05/05 10:39:41;;;;;;;;;;;19.90;68.60;;;;;;5085008;28;1351;-69
2023/05/05 10:42:07;;;;;;;;;;;19.90;68.90;;;;;;5085329;28;910;-69
2023/05/05 10:44:32;;;;;;;;;;;19.90;69.10;;;;;;5053128;28;1272;-69
2023/05/05 10:46:58;;;;;;;;;;;19.90;70.00;;;;;;5053463;28;819;-70
2023/05/05 10:49:27;;;;;;;;;;;19.80;69.60;;;;;;5053221;28;1961;-69
2023/05/05 10:52:04;;;;;;;;;;;19.90;69.80;;;;;;5052213;28;1444;-69
2023/05/05 10:54:31;;;;;;;;;;;19.80;69.90;;;;;;5047533;28;1376;-69
2023/05/05 10:56:57;;;;;;;;;;;19.80;70.20;;;;;;5084569;28;962;-69
2023/05/05 10:59:35;;;;;;;;;;;19.80;70.40;;;;;;5085191;28;853;-69
2023/05/05 11:02:16;;;;;;;;;;;19.80;70.60;;;;;;5052117;28;828;-69
2023/05/05 11:04:41;;;;;;;;;;;19.80;70.80;;;;;;5051557;28;1358;-69
2023/05/05 11:07:07;;;;;;;;;;;19.70;71.00;;;;;;5050261;28;1002;-69
2023/05/05 11:09:37;;;;;;;;;;;19.70;71.10;;;;;;5052190;28;1967;-69
2023/05/05 11:12:06;;;;;;;;;;;19.80;71.70;;;;;;5052274;28;1292;-69
2023/05/05 11:14:31;;;;;;;;;;;19.70;71.70;;;;;;5084052;28;1370;-69
2023/05/05 11:16:57;;;;;;;;;;;19.80;71.90;;;;;;5052439;28;887;-69
2023/05/05 11:19:41;;;;;;;;;;;19.70;71.80;;;;;;5052374;28;1251;-69
2023/05/05 11:22:06;;;;;;;;;;;19.70;71.60;;;;;;5052541;28;843;-69
2023/05/05 11:24:32;;;;;;;;;;;19.70;71.90;;;;;;5051994;28;1406;-69
2023/05/05 11:26:57;;;;;;;;;;;19.70;71.90;;;;;;5052005;28;899;-69
2023/05/05 11:29:23;;;;;;;;;;;19.70;71.90;;;;;;5051251;28;1957;-69
2023/05/05 11:32:15;;;;;;;;;;;19.70;72.10;;;;;;5051722;28;2097;-70
2023/05/05 11:34:47;;;;;;;;;;;19.70;72.00;;;;;;5051221;28;2316;-70
2023/05/05 11:37:12;;;;;;;;;;;19.70;71.80;;;;;;5051446;28;1389;-70
2023/05/05 11:39:40;;;;;;;;;;;19.70;71.90;;;;;;5051099;28;862;-70
2023/05/05 11:42:11;;;;;;;;;;;19.70;71.70;;;;;;5050932;28;867;-70
2023/05/05 11:44:36;;;;;;;;;;;19.70;71.70;;;;;;5050378;28;1264;-69
2023/05/05 11:47:05;;;;;;;;;;;19.70;71.50;;;;;;5050817;28;843;-70
2023/05/05 11:49:33;;;;;;;;;;;19.70;71.30;;;;;;5050114;28;2341;-70
2023/05/05 11:52:06;;;;;;;;;;;19.70;71.30;;;;;;5049637;28;938;-70
2023/05/05 11:54:33;;;;;;;;;;;19.70;72.10;;;;;;5051240;28;1296;-69
2023/05/05 11:57:04;;;;;;;;;;;19.70;71.50;;;;;;5051049;28;868;-71
2023/05/05 11:59:30;;;;;;;;;;;19.70;71.40;;;;;;5050470;28;1568;-70
2023/05/05 12:01:55;;;;;;;;;;;19.70;71.20;;;;;;5051736;28;1061;-70
2023/05/05 12:04:21;;;;;;;;;;;19.70;71.50;;;;;;5050134;28;1399;-70
2023/05/05 12:06:47;;;;;;;;;;;19.70;71.10;;;;;;5051591;28;949;-70
2023/05/05 12:09:14;;;;;;;;;;;19.70;68.00;;;;;;5066169;28;1969;-70
2023/05/05 12:11:49;;;;;;;;;;;19.70;66.60;;;;;;5050514;28;872;-69
2023/05/05 12:14:14;;;;;;;;;;;19.60;64.40;;;;;;5066304;28;1283;-70
2023/05/05 12:16:40;;;;;;;;;;;19.70;64.70;;;;;;5033629;28;1166;-71
2023/05/05 12:19:06;;;;;;;;;;;19.60;62.10;;;;;;5050989;28;1294;-70
2023/05/05 12:21:31;;;;;;;;;;;19.60;62.40;;;;;;5050878;28;1326;-69
2023/05/05 12:23:57;;;;;;;;;;;19.60;61.80;;;;;;5050964;28;1279;-69
2023/05/05 12:26:26;;;;;;;;;;;19.60;62.50;;;;;;5048989;28;1876;-72
2023/05/05 12:28:52;;;;;;;;;;;19.60;63.40;;;;;;5049976;28;1894;-72
2023/05/05 12:31:17;;;;;;;;;;;19.60;63.10;;;;;;5081076;28;1224;-69
2023/05/05 12:33:43;;;;;;;;;;;19.60;63.90;;;;;;5082792;28;1380;-70
2023/05/05 12:36:08;;;;;;;;;;;19.60;62.80;;;;;;5082920;28;1352;-69
2023/05/05 12:38:34;;;;;;;;;;;19.50;63.00;;;;;;5050523;28;927;-70
2023/05/05 12:41:00;;;;;;;;;;;19.50;63.00;;;;;;5049523;28;1182;-69
2023/05/05 12:43:32;;;;;;;;;;;19.50;61.90;;;;;;5047442;28;892;-69
2023/05/05 12:46:07;;;;;;;;;;;19.50;61.10;;;;;;5082746;28;1337;-69
2023/05/05 12:48:33;;;;;;;;;;;19.50;61.60;;;;;;5048900;28;1927;-70
2023/05/05 12:51:15;;;;;;;;;;;19.50;61.50;;;;;;5048458;28;1819;-69
2023/05/05 12:53:40;;;;;;;;;;;19.40;61.90;;;;;;5049755;28;1414;-69
2023/05/05 12:56:26;;;;;;;;;;;19.50;62.40;;;;;;5082932;28;1537;-70
2023/05/05 12:58:54;;;;;;;;;;;19.40;62.80;;;;;;5049875;28;1402;-70
2023/05/05 13:01:19;;;;;;;;;;;19.40;62.60;;;;;;5050127;28;1527;-70
2023/05/05 13:03:45;;;;;;;;;;;19.40;62.90;;;;;;5050382;28;899;-70
2023/05/05 13:06:20;;;;;;;;;;;19.40;62.90;;;;;;5050234;28;1346;-69
2023/05/05 13:08:45;;;;;;;;;;;19.40;63.00;;;;;;5081920;28;1962;-70
2023/05/05 13:11:12;;;;;;;;;;;19.30;63.10;;;;;;5050427;28;1406;-69
2023/05/05 13:13:37;;;;;;;;;;;19.30;63.10;;;;;;5032127;28;1076;-70
2023/05/05 13:16:03;;;;;;;;;;;19.30;63.30;;;;;;5050268;28;1372;-69
2023/05/05 13:18:29;;;;;;;;;;;19.30;63.20;;;;;;5050472;28;830;-69
2023/05/05 13:20:54;;;;;;;;;;;19.30;63.20;;;;;;5050344;28;982;-69
2023/05/05 13:23:20;;;;;;;;;;;19.30;62.80;;;;;;5050206;28;847;-69
2023/05/05 13:25:46;;;;;;;;;;;19.30;62.70;;;;;;5050110;28;1477;-70
2023/05/05 13:28:11;;;;;;;;;;;19.30;63.00;;;;;;5049990;28;1362;-69
2023/05/05 13:30:37;;;;;;;;;;;19.20;63.00;;;;;;5050043;28;1930;-69
2023/05/05 13:33:02;;;;;;;;;;;19.20;62.50;;;;;;5050154;28;843;-70
2023/05/05 13:35:28;;;;;;;;;;;19.20;62.70;;;;;;5049642;28;1504;-69
2023/05/05 13:37:54;;;;;;;;;;;19.20;62.50;;;;;;5049915;28;869;-69
2023/05/05 13:40:20;;;;;;;;;;;19.20;62.30;;;;;;5050099;28;846;-69
2023/05/05 13:42:45;;;;;;;;;;;19.20;62.40;;;;;;5048878;28;866;-69
2023/05/05 13:45:11;;;;;;;;;;;19.20;62.60;;;;;;5048348;28;1365;-69
2023/05/05 13:47:36;;;;;;;;;;;19.20;62.50;;;;;;5082255;28;875;-69
2023/05/05 13:50:02;;;;;;;;;;;19.20;62.20;;;;;;5049797;28;1918;-69
2023/05/05 13:52:28;;;;;;;;;;;19.20;62.50;;;;;;5050267;28;864;-69
2023/05/05 13:54:53;;;;;;;;;;;19.20;62.50;;;;;;5048594;28;1353;-69
2023/05/05 13:57:19;;;;;;;;;;;19.20;62.10;;;;;;5054026;28;839;-69
2023/05/05 13:59:44;;;;;;;;;;;19.20;62.30;;;;;;5053789;28;867;-70
2023/05/05 14:02:10;;;;;;;;;;;19.20;61.90;;;;;;5053246;28;2175;-70
2023/05/05 14:04:36;;;;;;;;;;;19.20;61.60;;;;;;5051511;28;1525;-70
2023/05/05 14:07:03;;;;;;;;;;;19.20;60.50;;;;;;5052658;28;1464;-70
2023/05/05 14:09:29;;;;;;;;;;;19.20;60.20;;;;;;5052244;28;1922;-70
2023/05/05 14:11:54;;;;;;;;;;;19.20;59.80;;;;;;5052908;28;835;-70
2023/05/05 14:14:20;;;;;;;;;;;19.20;58.40;;;;;;5052954;28;1331;-70
2023/05/05 14:16:45;;;;;;;;;;;19.20;58.40;;;;;;5052902;28;860;-70
2023/05/05 14:19:11;;;;;;;;;;;19.20;58.80;;;;;;5053661;28;930;-70
2023/05/05 14:21:37;;;;;;;;;;;19.20;59.40;;;;;;5053758;28;1298;-70
2023/05/05 14:24:02;;;;;;;;;;;19.20;60.20;;;;;;5086048;28;1266;-70
2023/05/05 14:26:28;;;;;;;;;;;19.10;60.00;;;;;;5053989;28;796;-70
2023/05/05 14:28:53;;;;;;;;;;;19.10;59.10;;;;;;5054250;28;1898;-70
2023/05/05 14:31:19;;;;;;;;;;;19.20;59.00;;;;;;5054419;28;922;-70
2023/05/05 14:33:44;;;;;;;;;;;19.10;58.60;;;;;;5053345;28;1368;-70